Time;durP1;ratioP1;P1;durP2;ratioP2;P2;SDS_P1;SDS_P2;PMS_P1;PMS_P2;Temp;Humidity;BMP_temperature;BMP_pressure;BME280_temperature;BME280_humidity;BME280_pressure;Samples;Min_cycle;Max_cycle;Signal;HPM_P1;HPM_P2
2021/07/04 00:01:48;;;;;;;30.00;16.80;;;;;;;;;;5074620;28;20024;-65
2021/07/04 00:04:13;;;;;;;22.55;16.15;;;;;;;;;;5080540;28;20024;-65
2021/07/04 00:06:38;;;;;;;23.83;15.87;;;;;;;;;;5086771;28;20081;-65
2021/07/04 00:09:04;;;;;;;25.67;16.07;;;;;;;;;;5089901;28;20270;-65
2021/07/04 00:11:29;;;;;;;22.38;16.15;;;;;;;;;;5088834;28;20262;-65
2021/07/04 00:13:54;;;;;;;25.23;15.82;;;;;;;;;;5073890;28;20029;-65
2021/07/04 00:16:19;;;;;;;23.53;15.43;;;;;;;;;;5085321;28;20024;-65
2021/07/04 00:18:45;;;;;;;27.42;16.50;;;;;;;;;;5075536;22;20303;-65
2021/07/04 00:21:10;;;;;;;25.88;15.90;;;;;;;;;;5058266;28;20078;-65
2021/07/04 00:23:36;;;;;;;27.40;17.75;;;;;;;;;;5053902;28;20107;-65
2021/07/04 00:26:02;;;;;;;22.60;16.20;;;;;;;;;;5053139;28;20105;-65
2021/07/04 00:28:27;;;;;;;25.70;17.40;;;;;;;;;;5036629;28;20013;-65
2021/07/04 00:30:53;;;;;;;22.80;16.77;;;;;;;;;;5033794;28;20053;-65
2021/07/04 00:33:18;;;;;;;23.23;14.80;;;;;;;;;;5040329;28;20013;-65
2021/07/04 00:35:43;;;;;;;26.92;17.13;;;;;;;;;;5038160;28;20053;-65
2021/07/04 00:38:09;;;;;;;24.58;16.20;;;;;;;;;;5038896;28;20029;-65
2021/07/04 00:40:36;;;;;;;26.83;16.00;;;;;;;;;;5046987;28;20075;-65
2021/07/04 00:43:01;;;;;;;22.88;16.48;;;;;;;;;;5040728;28;20504;-65
2021/07/04 00:45:27;;;;;;;28.20;18.17;;;;;;;;;;5033092;28;20108;-65
2021/07/04 00:47:52;;;;;;;36.83;18.33;;;;;;;;;;5046958;28;20029;-65
2021/07/04 00:50:18;;;;;;;28.60;18.23;;;;;;;;;;5048790;28;20037;-65
2021/07/04 00:52:44;;;;;;;28.17;17.90;;;;;;;;;;5035520;28;20021;-65
2021/07/04 00:55:09;;;;;;;23.60;17.52;;;;;;;;;;5034737;28;20262;-65
2021/07/04 00:57:36;;;;;;;26.95;17.80;;;;;;;;;;5045448;28;20040;-65
2021/07/04 01:00:03;;;;;;;29.85;18.17;;;;;;;;;;5046267;28;20031;-65
2021/07/04 01:02:28;;;;;;;28.50;18.55;;;;;;;;;;5032837;28;20359;-65
2021/07/04 01:04:54;;;;;;;26.33;18.97;;;;;;;;;;5041372;28;20032;-65
2021/07/04 01:07:20;;;;;;;36.58;19.27;;;;;;;;;;5047154;28;20271;-65
2021/07/04 01:09:45;;;;;;;26.00;17.23;;;;;;;;;;5038969;28;20028;-65
2021/07/04 01:12:10;;;;;;;26.02;16.92;;;;;;;;;;5049115;28;20013;-65
2021/07/04 01:14:36;;;;;;;24.83;16.10;;;;;;;;;;5038643;28;20082;-65
2021/07/04 01:17:01;;;;;;;23.50;15.73;;;;;;;;;;5037799;28;20276;-65
2021/07/04 01:19:26;;;;;;;22.23;14.82;;;;;;;;;;5032479;28;20108;-65
2021/07/04 01:21:53;;;;;;;23.50;15.90;;;;;;;;;;5032044;28;20047;-65
2021/07/04 01:24:19;;;;;;;22.30;14.85;;;;;;;;;;5031769;28;20049;-65
2021/07/04 01:26:44;;;;;;;20.35;14.35;;;;;;;;;;5035718;28;20022;-65
2021/07/04 01:29:10;;;;;;;23.37;15.70;;;;;;;;;;5031530;28;20060;-65
2021/07/04 01:31:35;;;;;;;22.33;14.73;;;;;;;;;;5032047;28;20654;-65
2021/07/04 01:34:00;;;;;;;26.23;15.40;;;;;;;;;;5032294;28;20264;-65
2021/07/04 01:36:25;;;;;;;24.33;15.10;;;;;;;;;;5036119;28;20507;-65
2021/07/04 01:38:50;;;;;;;23.88;15.10;;;;;;;;;;5049303;28;20289;-65
2021/07/04 01:41:16;;;;;;;25.75;16.50;;;;;;;;;;5030344;28;20270;-65
2021/07/04 01:43:41;;;;;;;27.40;16.33;;;;;;;;;;5032138;28;20032;-65
2021/07/04 01:46:06;;;;;;;24.30;15.13;;;;;;;;;;5030870;28;20061;-65
2021/07/04 01:48:31;;;;;;;24.88;15.70;;;;;;;;;;5031870;28;20064;-65
2021/07/04 01:50:56;;;;;;;20.63;14.17;;;;;;;;;;5037222;28;20034;-65
2021/07/04 01:53:22;;;;;;;23.37;15.43;;;;;;;;;;5031224;28;20287;-65
2021/07/04 01:55:47;;;;;;;24.75;15.18;;;;;;;;;;5040267;28;20640;-65
2021/07/04 01:58:13;;;;;;;21.77;15.50;;;;;;;;;;5043161;28;20111;-65
2021/07/04 02:00:39;;;;;;;24.38;15.57;;;;;;;;;;5036376;28;20036;-65
2021/07/04 02:03:05;;;;;;;24.25;16.15;;;;;;;;;;5049333;28;20066;-65
2021/07/04 02:05:30;;;;;;;22.25;15.60;;;;;;;;;;5037809;28;20075;-65
2021/07/04 02:07:57;;;;;;;23.40;15.35;;;;;;;;;;5047191;28;20055;-65
2021/07/04 02:10:24;;;;;;;20.13;15.27;;;;;;;;;;5038202;28;20099;-65
2021/07/04 02:12:49;;;;;;;24.13;16.02;;;;;;;;;;5037847;28;20026;-65
2021/07/04 02:15:21;;;;;;;22.67;15.90;;;;;;;;;;5040745;28;20059;-65
2021/07/04 02:17:47;;;;;;;24.40;16.27;;;;;;;;;;5045533;28;20056;-65
2021/07/04 02:20:28;;;;;;;31.92;16.50;;;;;;;;;;5046300;28;20454;-65
2021/07/04 02:22:53;;;;;;;23.15;16.73;;;;;;;;;;5049269;28;20021;-65
2021/07/04 02:25:18;;;;;;;26.48;16.23;;;;;;;;;;5033498;28;20013;-65
2021/07/04 02:27:44;;;;;;;26.63;18.38;;;;;;;;;;5030724;28;20362;-65
2021/07/04 02:30:09;;;;;;;26.57;16.70;;;;;;;;;;5045967;28;20032;-65
2021/07/04 02:32:34;;;;;;;28.63;18.02;;;;;;;;;;5033993;28;20680;-65
2021/07/04 02:35:02;;;;;;;29.70;17.48;;;;;;;;;;5040385;28;20029;-65
2021/07/04 02:37:27;;;;;;;29.23;17.95;;;;;;;;;;5040778;28;20381;-65
2021/07/04 02:39:52;;;;;;;26.85;18.15;;;;;;;;;;5042707;28;20079;-65
2021/07/04 02:42:17;;;;;;;26.97;18.33;;;;;;;;;;5036403;28;20079;-65
2021/07/04 02:44:42;;;;;;;29.57;19.77;;;;;;;;;;5045224;28;20260;-65
2021/07/04 02:47:08;;;;;;;34.90;18.87;;;;;;;;;;5036799;28;20263;-65
2021/07/04 02:49:33;;;;;;;27.85;19.10;;;;;;;;;;5038470;28;20374;-65
2021/07/04 02:51:58;;;;;;;28.87;19.07;;;;;;;;;;5046701;28;20100;-65
2021/07/04 02:54:23;;;;;;;28.80;16.13;;;;;;;;;;5030596;28;20275;-65
2021/07/04 02:56:48;;;;;;;33.77;18.97;;;;;;;;;;5029963;28;20079;-65
2021/07/04 02:59:14;;;;;;;26.60;17.57;;;;;;;;;;5041953;28;20275;-65
2021/07/04 03:01:39;;;;;;;34.47;18.77;;;;;;;;;;5033995;28;20326;-65
2021/07/04 03:04:04;;;;;;;30.97;18.40;;;;;;;;;;5032587;28;20375;-65
2021/07/04 03:06:29;;;;;;;30.53;18.60;;;;;;;;;;5034395;28;20615;-65
2021/07/04 03:08:54;;;;;;;29.53;20.07;;;;;;;;;;5035182;28;20272;-65
2021/07/04 03:11:19;;;;;;;36.23;19.13;;;;;;;;;;5029342;28;20302;-65
2021/07/04 03:13:45;;;;;;;25.90;17.90;;;;;;;;;;5029399;28;20268;-65
2021/07/04 03:16:10;;;;;;;31.58;18.30;;;;;;;;;;5043184;28;20025;-65
2021/07/04 03:18:35;;;;;;;29.27;18.63;;;;;;;;;;5032495;28;20087;-65
2021/07/04 03:21:00;;;;;;;25.37;17.73;;;;;;;;;;5039415;28;20271;-65
2021/07/04 03:23:25;;;;;;;30.88;19.63;;;;;;;;;;5031603;28;20660;-65
2021/07/04 03:25:52;;;;;;;30.88;20.10;;;;;;;;;;5041069;28;20083;-65
2021/07/04 03:28:17;;;;;;;27.13;17.67;;;;;;;;;;5044580;28;20484;-65
2021/07/04 03:30:42;;;;;;;31.20;18.15;;;;;;;;;;5036693;28;20034;-65
2021/07/04 03:33:08;;;;;;;25.37;17.27;;;;;;;;;;5035050;28;20048;-65
2021/07/04 03:35:33;;;;;;;24.98;17.40;;;;;;;;;;5044489;28;20267;-65
2021/07/04 03:37:58;;;;;;;22.85;16.52;;;;;;;;;;5035580;28;20036;-65
2021/07/04 03:40:23;;;;;;;28.92;17.65;;;;;;;;;;5044578;28;20076;-65
2021/07/04 03:42:50;;;;;;;26.13;17.17;;;;;;;;;;5029731;28;20507;-65
2021/07/04 03:45:15;;;;;;;31.08;17.88;;;;;;;;;;5033532;28;20025;-65
2021/07/04 03:47:40;;;;;;;27.02;16.95;;;;;;;;;;5036521;28;20390;-65
2021/07/04 03:50:06;;;;;;;29.70;18.17;;;;;;;;;;5046013;28;20025;-65
2021/07/04 03:52:31;;;;;;;29.17;17.98;;;;;;;;;;5030439;28;20422;-65
2021/07/04 03:54:57;;;;;;;26.73;17.95;;;;;;;;;;5030711;28;20024;-65
2021/07/04 03:57:22;;;;;;;19.63;15.33;;;;;;;;;;5038505;28;20106;-65
2021/07/04 03:59:48;;;;;;;25.55;16.38;;;;;;;;;;5037859;28;20276;-65
2021/07/04 04:02:13;;;;;;;28.35;16.38;;;;;;;;;;5049495;28;20022;-65
2021/07/04 04:04:39;;;;;;;27.47;17.30;;;;;;;;;;5045234;28;20025;-65
2021/07/04 04:07:04;;;;;;;25.33;15.60;;;;;;;;;;5032845;28;20839;-65
2021/07/04 04:09:29;;;;;;;25.20;15.68;;;;;;;;;;5034006;28;20271;-65
2021/07/04 04:11:54;;;;;;;31.60;17.10;;;;;;;;;;5037722;28;20029;-65
2021/07/04 04:14:19;;;;;;;21.27;15.80;;;;;;;;;;5036620;28;20264;-65
2021/07/04 04:16:44;;;;;;;22.93;15.87;;;;;;;;;;5047897;28;20381;-65
2021/07/04 04:19:10;;;;;;;19.90;14.83;;;;;;;;;;5042827;28;20430;-64
2021/07/04 04:21:35;;;;;;;22.17;15.33;;;;;;;;;;5042971;28;20267;-65
2021/07/04 04:24:00;;;;;;;21.05;15.48;;;;;;;;;;5039266;28;20275;-65
2021/07/04 04:26:26;;;;;;;23.95;15.35;;;;;;;;;;5050218;28;20113;-65
2021/07/04 04:28:51;;;;;;;22.93;14.73;;;;;;;;;;5045554;28;20033;-65
2021/07/04 04:31:16;;;;;;;25.03;14.17;;;;;;;;;;5042160;28;20365;-65
2021/07/04 04:33:41;;;;;;;23.87;15.30;;;;;;;;;;5033896;28;20688;-65
2021/07/04 04:36:06;;;;;;;22.23;15.73;;;;;;;;;;5032420;28;20264;-65
2021/07/04 04:38:32;;;;;;;20.95;14.52;;;;;;;;;;5036192;28;20314;-65
2021/07/04 04:40:57;;;;;;;20.57;12.93;;;;;;;;;;5044631;28;20025;-65
2021/07/04 04:43:22;;;;;;;24.80;13.63;;;;;;;;;;5036561;28;20279;-65
2021/07/04 04:45:48;;;;;;;23.05;14.65;;;;;;;;;;5032045;28;20264;-65
2021/07/04 04:48:13;;;;;;;19.75;13.95;;;;;;;;;;5032984;28;20025;-65
2021/07/04 04:50:38;;;;;;;19.88;13.85;;;;;;;;;;5047544;28;20029;-65
2021/07/04 04:53:03;;;;;;;23.03;13.70;;;;;;;;;;5034371;28;20120;-65
2021/07/04 04:55:28;;;;;;;26.43;12.90;;;;;;;;;;5040296;28;20307;-65
2021/07/04 04:57:54;;;;;;;23.60;14.40;;;;;;;;;;5020451;28;20652;-65
2021/07/04 05:00:19;;;;;;;19.42;13.07;;;;;;;;;;5043540;28;20482;-65
2021/07/04 05:02:44;;;;;;;18.95;13.40;;;;;;;;;;5033074;28;20025;-65
2021/07/04 05:05:10;;;;;;;22.48;12.30;;;;;;;;;;5031605;28;20509;-65
2021/07/04 05:07:35;;;;;;;14.45;11.73;;;;;;;;;;5038375;28;20099;-65
2021/07/04 05:10:01;;;;;;;15.50;11.82;;;;;;;;;;5051028;28;20442;-65
2021/07/04 05:12:26;;;;;;;15.25;10.75;;;;;;;;;;5035515;28;20076;-65
2021/07/04 05:14:52;;;;;;;18.70;10.97;;;;;;;;;;5031306;28;20030;-65
2021/07/04 05:17:17;;;;;;;22.58;11.27;;;;;;;;;;5041569;28;20279;-65
2021/07/04 05:19:43;;;;;;;21.38;10.23;;;;;;;;;;5037422;28;20033;-65
2021/07/04 05:22:08;;;;;;;19.15;10.75;;;;;;;;;;5038446;28;20504;-65
2021/07/04 05:24:34;;;;;;;17.10;10.07;;;;;;;;;;5043507;28;20425;-65
2021/07/04 05:26:59;;;;;;;16.30;10.77;;;;;;;;;;5039612;28;20017;-65
2021/07/04 05:29:24;;;;;;;14.77;10.60;;;;;;;;;;5039870;28;20667;-65
2021/07/04 05:31:49;;;;;;;14.77;9.50;;;;;;;;;;5047802;28;20493;-65
2021/07/04 05:34:14;;;;;;;15.63;9.77;;;;;;;;;;5037634;28;20027;-65
2021/07/04 05:36:40;;;;;;;13.63;10.02;;;;;;;;;;5035590;28;20276;-65
2021/07/04 05:39:05;;;;;;;15.18;9.82;;;;;;;;;;5043702;28;20028;-65
2021/07/04 05:41:30;;;;;;;15.20;9.95;;;;;;;;;;5031277;28;20045;-65
2021/07/04 05:43:55;;;;;;;14.15;10.18;;;;;;;;;;5029926;28;20014;-65
2021/07/04 05:46:21;;;;;;;15.38;10.88;;;;;;;;;;5031854;28;20025;-65
2021/07/04 05:48:46;;;;;;;13.52;9.88;;;;;;;;;;5039399;28;20441;-65
2021/07/04 05:51:11;;;;;;;17.88;9.20;;;;;;;;;;5038317;28;20445;-65
2021/07/04 05:53:37;;;;;;;11.68;8.02;;;;;;;;;;5039839;28;20029;-65
2021/07/04 05:56:02;;;;;;;12.75;9.32;;;;;;;;;;5033253;28;20028;-65
2021/07/04 05:58:27;;;;;;;14.18;9.07;;;;;;;;;;5039491;28;20040;-65
2021/07/04 06:00:53;;;;;;;13.88;9.48;;;;;;;;;;5028716;28;20018;-65
2021/07/04 06:03:18;;;;;;;16.92;9.48;;;;;;;;;;5027044;28;20025;-65
2021/07/04 06:05:43;;;;;;;13.07;8.07;;;;;;;;;;5032767;28;20040;-65
2021/07/04 06:08:08;;;;;;;14.23;9.13;;;;;;;;;;5028599;28;20053;-65
2021/07/04 06:10:34;;;;;;;12.67;8.97;;;;;;;;;;5029997;28;20126;-64
2021/07/04 06:12:59;;;;;;;11.13;8.32;;;;;;;;;;5029609;28;20406;-64
2021/07/04 06:15:25;;;;;;;13.65;8.63;;;;;;;;;;5029173;28;20093;-64
2021/07/04 06:17:50;;;;;;;10.68;7.97;;;;;;;;;;5071912;22;20550;-87
2021/07/04 06:20:17;;;;;;;13.60;8.32;;;;;;;;;;5061883;28;20100;-86
2021/07/04 06:22:42;;;;;;;14.15;8.50;;;;;;;;;;5054845;28;20025;-86
2021/07/04 06:25:09;;;;;;;18.38;9.20;;;;;;;;;;5064124;28;20027;-86
2021/07/04 06:27:35;;;;;;;12.93;8.00;;;;;;;;;;5064691;28;20024;-87
2021/07/04 06:30:00;;;;;;;12.90;8.18;;;;;;;;;;5061288;28;20031;-87
2021/07/04 06:32:26;;;;;;;17.33;10.48;;;;;;;;;;5063759;28;20017;-86
2021/07/04 06:34:51;;;;;;;11.63;8.07;;;;;;;;;;5064628;28;20051;-86
2021/07/04 06:37:16;;;;;;;12.05;7.45;;;;;;;;;;5063471;28;20673;-85
2021/07/04 06:39:41;;;;;;;13.23;8.23;;;;;;;;;;5059801;28;20048;-86
2021/07/04 06:42:07;;;;;;;12.05;8.10;;;;;;;;;;5056131;28;20810;-87
2021/07/04 06:44:32;;;;;;;13.05;8.30;;;;;;;;;;5064571;28;20542;-84
2021/07/04 06:46:57;;;;;;;13.50;8.15;;;;;;;;;;5066257;28;20013;-86
2021/07/04 06:49:22;;;;;;;14.40;7.88;;;;;;;;;;5064405;28;20332;-86
2021/07/04 06:51:48;;;;;;;12.25;8.20;;;;;;;;;;5064225;28;20027;-87
2021/07/04 06:54:14;;;;;;;14.23;7.00;;;;;;;;;;5064060;28;20040;-86
2021/07/04 06:56:39;;;;;;;14.70;7.35;;;;;;;;;;5064332;28;20031;-86
2021/07/04 06:59:04;;;;;;;14.87;7.50;;;;;;;;;;5063481;28;20111;-86
2021/07/04 07:01:31;;;;;;;14.13;7.53;;;;;;;;;;5061915;28;20833;-86
2021/07/04 07:03:56;;;;;;;10.85;7.65;;;;;;;;;;5066323;28;20255;-86
2021/07/04 07:06:21;;;;;;;14.40;7.93;;;;;;;;;;5075741;28;20066;-84
2021/07/04 07:08:47;;;;;;;12.90;8.52;;;;;;;;;;5063976;28;20750;-83
2021/07/04 07:11:13;;;;;;;13.57;8.55;;;;;;;;;;5067251;28;20020;-83
2021/07/04 07:13:38;;;;;;;11.48;7.82;;;;;;;;;;5065306;28;20530;-83
2021/07/04 07:16:03;;;;;;;12.00;7.73;;;;;;;;;;5064108;28;20021;-84
2021/07/04 07:18:29;;;;;;;11.75;8.02;;;;;;;;;;5066394;28;20325;-83
2021/07/04 07:20:55;;;;;;;11.93;7.60;;;;;;;;;;5064082;28;20024;-86
2021/07/04 07:23:20;;;;;;;9.68;7.18;;;;;;;;;;5045658;28;20470;-85
2021/07/04 07:25:45;;;;;;;11.77;8.07;;;;;;;;;;5059041;28;20477;-83
2021/07/04 07:28:10;;;;;;;13.50;7.20;;;;;;;;;;5046108;28;20271;-83
2021/07/04 07:30:36;;;;;;;11.47;7.70;;;;;;;;;;5066282;28;20359;-83
2021/07/04 07:33:01;;;;;;;14.68;7.65;;;;;;;;;;5054002;28;20411;-83
2021/07/04 07:35:26;;;;;;;11.88;7.93;;;;;;;;;;5067736;28;20293;-83
2021/07/04 07:37:52;;;;;;;15.35;7.85;;;;;;;;;;5067527;28;20021;-83
2021/07/04 07:40:18;;;;;;;17.33;8.65;;;;;;;;;;5070810;28;20031;-83
2021/07/04 07:42:43;;;;;;;12.63;8.52;;;;;;;;;;5070885;28;20021;-83
2021/07/04 07:45:08;;;;;;;12.88;9.32;;;;;;;;;;5069341;28;20048;-83
2021/07/04 07:47:34;;;;;;;12.02;7.80;;;;;;;;;;5069919;28;20029;-82
2021/07/04 07:50:01;;;;;;;11.32;7.07;;;;;;;;;;5068658;28;20020;-83
2021/07/04 07:52:27;;;;;;;11.05;7.47;;;;;;;;;;5053536;28;20099;-83
2021/07/04 07:54:52;;;;;;;10.18;7.65;;;;;;;;;;5070217;28;20091;-83
2021/07/04 07:57:17;;;;;;;9.30;6.68;;;;;;;;;;5070552;28;20020;-83
2021/07/04 07:59:42;;;;;;;13.70;7.17;;;;;;;;;;5068937;28;20024;-83
2021/07/04 08:02:08;;;;;;;10.60;7.40;;;;;;;;;;5070575;28;20685;-83
2021/07/04 08:04:34;;;;;;;11.27;7.68;;;;;;;;;;5069102;28;20037;-83
2021/07/04 08:06:59;;;;;;;12.45;7.85;;;;;;;;;;5068779;28;20016;-83
2021/07/04 08:09:24;;;;;;;13.00;8.23;;;;;;;;;;5068927;28;20023;-83
2021/07/04 08:11:49;;;;;;;10.83;8.83;;;;;;;;;;5068722;28;20271;-85
2021/07/04 08:14:14;;;;;;;7.70;6.17;;;;;;;;;;5065536;28;20650;-82
2021/07/04 08:16:40;;;;;;;11.18;6.97;;;;;;;;;;5062933;28;20804;-85
2021/07/04 08:19:05;;;;;;;11.48;7.63;;;;;;;;;;5065591;28;20077;-83
2021/07/04 08:21:30;;;;;;;13.05;7.10;;;;;;;;;;5063437;28;20029;-84
2021/07/04 08:23:56;;;;;;;11.97;6.87;;;;;;;;;;5067580;28;20146;-84
2021/07/04 08:26:22;;;;;;;12.05;6.70;;;;;;;;;;5053125;28;20763;-85
2021/07/04 08:28:47;;;;;;;12.80;6.63;;;;;;;;;;5059513;28;20029;-83
2021/07/04 08:31:12;;;;;;;8.07;6.10;;;;;;;;;;5063904;28;20065;-84
2021/07/04 08:33:38;;;;;;;9.37;6.03;;;;;;;;;;5067750;28;20031;-83
2021/07/04 08:36:03;;;;;;;8.55;6.25;;;;;;;;;;5071066;28;20281;-82
2021/07/04 08:38:28;;;;;;;8.52;6.32;;;;;;;;;;5078537;28;20076;-85
2021/07/04 08:40:53;;;;;;;10.38;6.82;;;;;;;;;;5068200;28;20016;-84
2021/07/04 08:43:30;;;;;;;8.73;6.63;;;;;;;;;;5068152;28;20028;-86
2021/07/04 08:45:56;;;;;;;10.45;5.78;;;;;;;;;;5068932;28;20033;-86
2021/07/04 08:48:21;;;;;;;13.00;6.32;;;;;;;;;;5068943;28;20135;-85
2021/07/04 08:50:46;;;;;;;11.40;6.38;;;;;;;;;;5069490;28;20020;-86
2021/07/04 08:53:11;;;;;;;9.70;6.67;;;;;;;;;;5069187;28;20031;-83
2021/07/04 08:55:37;;;;;;;8.00;5.75;;;;;;;;;;5068882;28;20608;-84
2021/07/04 08:58:02;;;;;;;14.27;5.70;;;;;;;;;;5057659;28;20075;-84
2021/07/04 09:00:27;;;;;;;9.77;6.53;;;;;;;;;;5055081;28;20378;-84
2021/07/04 09:02:53;;;;;;;8.15;5.63;;;;;;;;;;5071019;28;20262;-84
2021/07/04 09:05:18;;;;;;;12.00;5.85;;;;;;;;;;5087848;28;20020;-84
2021/07/04 09:07:45;;;;;;;7.35;4.80;;;;;;;;;;5077923;28;20083;-84
2021/07/04 09:10:12;;;;;;;9.70;5.38;;;;;;;;;;5070351;28;20096;-83
2021/07/04 09:12:38;;;;;;;7.13;5.28;;;;;;;;;;5066864;28;20025;-83
2021/07/04 09:15:08;;;;;;;9.45;5.32;;;;;;;;;;5066460;28;20044;-84
2021/07/04 09:17:34;;;;;;;7.85;5.63;;;;;;;;;;5066963;28;20120;-84
2021/07/04 09:19:59;;;;;;;13.07;5.93;;;;;;;;;;5067416;28;20021;-83
2021/07/04 09:22:26;;;;;;;8.90;5.30;;;;;;;;;;5067056;28;20179;-83
2021/07/04 09:24:51;;;;;;;6.78;5.68;;;;;;;;;;5067909;28;20501;-83
2021/07/04 09:27:16;;;;;;;8.77;5.77;;;;;;;;;;5070186;28;20020;-83
2021/07/04 09:29:48;;;;;;;9.07;5.47;;;;;;;;;;5063361;28;20270;-84
2021/07/04 09:32:14;;;;;;;7.68;5.75;;;;;;;;;;5058864;28;20028;-84
2021/07/04 09:34:40;;;;;;;9.15;4.75;;;;;;;;;;5063220;28;20017;-83
2021/07/04 09:37:05;;;;;;;9.15;5.75;;;;;;;;;;5063811;28;20162;-84
2021/07/04 09:39:30;;;;;;;8.03;5.70;;;;;;;;;;5057020;28;20035;-84
2021/07/04 09:42:09;;;;;;;9.07;5.23;;;;;;;;;;5067523;28;20271;-85
2021/07/04 09:44:35;;;;;;;7.15;4.90;;;;;;;;;;5052465;28;20242;-85
2021/07/04 09:47:10;;;;;;;7.25;5.68;;;;;;;;;;5056401;28;20013;-84
2021/07/04 09:49:35;;;;;;;6.25;5.18;;;;;;;;;;5058836;28;20032;-84
2021/07/04 09:52:15;;;;;;;9.27;5.20;;;;;;;;;;5061183;28;20039;-83
2021/07/04 09:54:56;;;;;;;7.32;5.60;;;;;;;;;;5063834;28;20762;-84
2021/07/04 09:57:21;;;;;;;9.20;5.55;;;;;;;;;;5064521;28;20075;-84
2021/07/04 09:59:46;;;;;;;7.65;5.28;;;;;;;;;;5066073;28;20499;-84
2021/07/04 10:02:15;;;;;;;9.57;5.88;;;;;;;;;;5064681;28;20162;-84
2021/07/04 10:04:40;;;;;;;9.48;5.70;;;;;;;;;;5065248;28;20055;-85
2021/07/04 10:07:06;;;;;;;9.23;5.90;;;;;;;;;;5055064;28;20017;-86
2021/07/04 10:09:31;;;;;;;8.13;6.10;;;;;;;;;;5059482;28;20296;-84
2021/07/04 10:11:57;;;;;;;10.23;6.22;;;;;;;;;;5067833;28;20480;-85
2021/07/04 10:14:22;;;;;;;8.70;5.82;;;;;;;;;;5068136;28;20709;-85
2021/07/04 10:16:48;;;;;;;7.05;4.75;;;;;;;;;;5062905;28;20447;-87
2021/07/04 10:19:18;;;;;;;7.28;5.30;;;;;;;;;;5062036;28;20101;-87
2021/07/04 10:21:44;;;;;;;12.55;5.50;;;;;;;;;;5065246;28;20017;-86
2021/07/04 10:24:11;;;;;;;10.20;5.75;;;;;;;;;;5067493;28;20046;-87
2021/07/04 10:26:36;;;;;;;12.27;5.38;;;;;;;;;;5080050;28;20135;-86
2021/07/04 10:29:04;;;;;;;6.20;4.35;;;;;;;;;;5075385;28;20083;-87
2021/07/04 10:31:33;;;;;;;7.10;5.10;;;;;;;;;;5065006;28;20633;-86
2021/07/04 10:34:05;;;;;;;8.35;5.53;;;;;;;;;;5071421;28;20047;-86
2021/07/04 10:36:32;;;;;;;9.57;4.95;;;;;;;;;;5069570;28;20054;-87
2021/07/04 10:39:09;;;;;;;8.00;4.78;;;;;;;;;;5056258;28;20028;-87
2021/07/04 10:41:35;;;;;;;6.63;5.15;;;;;;;;;;5066971;28;20044;-86
2021/07/04 10:44:00;;;;;;;8.98;5.25;;;;;;;;;;5067223;28;20495;-87
2021/07/04 10:46:44;;;;;;;6.50;3.60;;;;;;;;;;5071824;28;20089;-87
2021/07/04 10:49:10;;;;;;;13.07;4.25;;;;;;;;;;5060157;28;20028;-88
2021/07/04 10:51:52;;;;;;;4.75;3.53;;;;;;;;;;5057952;28;20027;-89
2021/07/04 10:54:37;;;;;;;7.60;5.30;;;;;;;;;;5064173;28;20024;-90
2021/07/04 10:57:06;;;;;;;7.68;4.45;;;;;;;;;;5071950;28;20555;-89
2021/07/04 10:59:32;;;;;;;9.95;5.75;;;;;;;;;;5064379;28;20034;-88
2021/07/04 11:01:58;;;;;;;9.82;6.28;;;;;;;;;;5066608;28;20025;-88
2021/07/04 11:04:32;;;;;;;13.85;7.22;;;;;;;;;;5065523;28;20020;-87
2021/07/04 11:07:02;;;;;;;7.97;3.78;;;;;;;;;;5069292;28;20710;-90
2021/07/04 11:09:46;;;;;;;7.65;4.85;;;;;;;;;;5069980;28;20032;-89
2021/07/04 11:12:31;;;;;;;7.60;4.70;;;;;;;;;;5057799;28;20025;-89
2021/07/04 11:15:11;;;;;;;6.95;4.53;;;;;;;;;;5070130;28;20507;-88
2021/07/04 11:17:55;;;;;;;7.82;4.93;;;;;;;;;;5074395;28;20043;-88
2021/07/04 11:20:20;;;;;;;9.18;5.43;;;;;;;;;;5070615;28;20064;-89
2021/07/04 11:22:58;;;;;;;11.07;4.25;;;;;;;;;;5071554;28;20051;-87
2021/07/04 11:25:23;;;;;;;6.90;5.28;;;;;;;;;;5068014;28;20018;-89
2021/07/04 11:28:07;;;;;;;6.95;4.68;;;;;;;;;;5072268;28;20016;-89
2021/07/04 11:30:33;;;;;;;6.82;3.42;;;;;;;;;;5070611;28;20088;-88
2021/07/04 11:33:16;;;;;;;6.72;3.15;;;;;;;;;;5071048;28;20519;-87
2021/07/04 11:35:42;;;;;;;3.50;2.20;;;;;;;;;;5071354;28;20306;-88
2021/07/04 11:38:12;;;;;;;5.20;3.22;;;;;;;;;;5071067;28;20033;-89
2021/07/04 11:40:41;;;;;;;2.22;1.65;;;;;;;;;;5071063;28;20020;-89
2021/07/04 11:43:10;;;;;;;3.70;1.73;;;;;;;;;;5070462;28;20484;-90
2021/07/04 11:45:36;;;;;;;2.80;1.98;;;;;;;;;;5069365;28;20358;-90
2021/07/04 11:48:01;;;;;;;4.88;2.10;;;;;;;;;;5071193;28;20052;-90
2021/07/04 11:50:26;;;;;;;2.53;1.30;;;;;;;;;;5070535;28;20519;-87
2021/07/04 11:53:04;;;;;;;3.50;2.40;;;;;;;;;;5071866;28;20263;-92
2021/07/04 11:55:32;;;;;;;4.38;2.45;;;;;;;;;;5070685;28;20820;-87
2021/07/04 11:57:58;;;;;;;4.82;2.88;;;;;;;;;;5070332;28;20047;-90
2021/07/04 12:00:29;;;;;;;2.47;1.65;;;;;;;;;;5071299;28;20016;-87
2021/07/04 12:02:56;;;;;;;4.30;1.98;;;;;;;;;;5070447;28;20029;-88
2021/07/04 12:05:21;;;;;;;4.75;2.63;;;;;;;;;;5077591;22;20385;-64
2021/07/04 12:07:47;;;;;;;4.40;2.70;;;;;;;;;;5052238;28;20043;-65
2021/07/04 12:10:12;;;;;;;4.53;3.10;;;;;;;;;;5052157;28;20271;-64
2021/07/04 12:12:38;;;;;;;2.25;1.52;;;;;;;;;;5048869;28;20029;-64
2021/07/04 12:15:07;;;;;;;11.57;2.28;;;;;;;;;;5048114;28;20133;-64
2021/07/04 12:17:34;;;;;;;3.13;2.20;;;;;;;;;;5047669;28;20519;-64
2021/07/04 12:20:19;;;;;;;5.63;2.92;;;;;;;;;;5041550;28;20065;-64
2021/07/04 12:22:48;;;;;;;3.85;2.30;;;;;;;;;;5050530;28;20009;-64
2021/07/04 12:25:18;;;;;;;4.90;2.50;;;;;;;;;;5049407;28;20009;-65
2021/07/04 12:27:44;;;;;;;4.38;2.28;;;;;;;;;;5047066;28;20543;-65
2021/07/04 12:30:16;;;;;;;4.45;2.70;;;;;;;;;;5047592;28;20032;-64
2021/07/04 12:32:43;;;;;;;3.17;2.25;;;;;;;;;;5047325;28;20021;-64
2021/07/04 12:35:17;;;;;;;4.10;1.83;;;;;;;;;;5047820;28;20665;-64
2021/07/04 12:37:43;;;;;;;3.67;2.40;;;;;;;;;;5047589;28;20473;-65
2021/07/04 12:40:14;;;;;;;5.07;2.35;;;;;;;;;;5047327;28;20047;-65
2021/07/04 12:42:40;;;;;;;3.42;2.20;;;;;;;;;;5046025;28;20082;-64
2021/07/04 12:45:07;;;;;;;5.90;1.90;;;;;;;;;;5047089;28;20623;-65
2021/07/04 12:47:33;;;;;;;4.50;2.15;;;;;;;;;;5047344;28;20824;-63
2021/07/04 12:50:08;;;;;;;3.17;2.03;;;;;;;;;;5052066;28;20021;-64
2021/07/04 12:52:34;;;;;;;4.85;2.13;;;;;;;;;;5052225;28;20025;-64
2021/07/04 12:54:59;;;;;;;4.25;2.40;;;;;;;;;;5048044;28;20036;-64
2021/07/04 12:57:34;;;;;;;2.95;2.10;;;;;;;;;;5048870;28;20044;-64
2021/07/04 13:00:16;;;;;;;3.15;2.40;;;;;;;;;;5043301;28;20044;-64
2021/07/04 13:02:45;;;;;;;4.57;2.38;;;;;;;;;;5042319;28;20033;-64
2021/07/04 13:05:11;;;;;;;2.90;2.20;;;;;;;;;;5046565;28;20431;-64
2021/07/04 13:07:40;;;;;;;4.60;2.30;;;;;;;;;;5052051;28;20025;-64
2021/07/04 13:10:06;;;;;;;5.90;2.33;;;;;;;;;;5051767;28;20039;-64
2021/07/04 13:12:35;;;;;;;5.53;2.17;;;;;;;;;;5051127;28;20385;-63
2021/07/04 13:15:02;;;;;;;6.80;2.30;;;;;;;;;;5050488;28;20029;-64
2021/07/04 13:17:27;;;;;;;4.75;2.10;;;;;;;;;;5050711;28;20525;-64
2021/07/04 13:19:54;;;;;;;7.77;3.60;;;;;;;;;;5050948;28;20536;-64
2021/07/04 13:22:21;;;;;;;3.65;2.50;;;;;;;;;;5051711;28;20334;-63
2021/07/04 13:24:50;;;;;;;6.70;2.70;;;;;;;;;;5050491;28;20575;-64
2021/07/04 13:27:18;;;;;;;7.32;3.15;;;;;;;;;;5051168;28;20016;-64
2021/07/04 13:29:44;;;;;;;6.85;2.95;;;;;;;;;;5045782;28;20020;-64
2021/07/04 13:32:20;;;;;;;4.03;3.10;;;;;;;;;;5049812;28;20021;-64
2021/07/04 13:35:06;;;;;;;4.97;3.63;;;;;;;;;;5050814;28;20029;-64
2021/07/04 13:37:33;;;;;;;5.57;3.78;;;;;;;;;;5048804;28;20013;-64
2021/07/04 13:40:01;;;;;;;4.90;1.90;;;;;;;;;;5050334;28;20021;-64
2021/07/04 13:42:28;;;;;;;5.53;1.55;;;;;;;;;;5050470;28;20096;-65
2021/07/04 13:44:54;;;;;;;7.38;1.67;;;;;;;;;;5042227;28;20021;-64
2021/07/04 13:47:19;;;;;;;7.75;1.92;;;;;;;;;;5051114;28;20024;-65
2021/07/04 13:49:44;;;;;;;3.60;2.03;;;;;;;;;;5050443;28;20020;-64
2021/07/04 13:52:10;;;;;;;8.27;2.13;;;;;;;;;;5051001;28;20021;-65
2021/07/04 13:54:35;;;;;;;5.13;1.42;;;;;;;;;;5050381;28;20029;-65
2021/07/04 13:57:01;;;;;;;10.15;2.05;;;;;;;;;;5049295;28;20051;-66
2021/07/04 13:59:26;;;;;;;9.45;1.23;;;;;;;;;;5050425;28;20017;-65
2021/07/04 14:01:51;;;;;;;3.22;1.20;;;;;;;;;;5049474;28;20068;-65
2021/07/04 14:04:19;;;;;;;4.82;1.20;;;;;;;;;;5048181;28;20087;-65
2021/07/04 14:06:45;;;;;;;5.68;1.05;;;;;;;;;;5047736;28;20029;-65
2021/07/04 14:09:12;;;;;;;4.53;1.20;;;;;;;;;;5048228;28;20024;-65
2021/07/04 14:11:37;;;;;;;4.53;0.85;;;;;;;;;;5047634;28;20025;-65
2021/07/04 14:14:02;;;;;;;4.95;0.80;;;;;;;;;;5049492;28;20067;-66
2021/07/04 14:16:27;;;;;;;3.87;1.20;;;;;;;;;;5050412;28;20063;-65
2021/07/04 14:18:52;;;;;;;5.07;0.93;;;;;;;;;;5049923;28;20647;-65
2021/07/04 14:21:17;;;;;;;9.20;0.70;;;;;;;;;;5050562;28;20301;-65
2021/07/04 14:23:43;;;;;;;5.30;0.87;;;;;;;;;;5050414;28;20316;-65
2021/07/04 14:26:08;;;;;;;1.63;0.60;;;;;;;;;;5049024;28;20259;-65